Thursday, June 21, 2018, 12:15 PM EDT
Back to Local

KMPO, Mt Pocono Pocono Mountains

Location: Pocono Summit, PA, United States Lat: 41.133
Local Time: 12:15 PM EDT (16:15 GMT) Lon: -75.383
Time Zone: US/Eastern Elev: 1915 ft

Show me the last for .
Show Decoded

2018-06-21 11:53 METAR KMPO 211553Z AUTO 34008KT 10SM CLR 22/11 A2987 RMK AO2 SLP105 T02220111 =
2018-06-21 10:53 METAR KMPO 211453Z AUTO 02011KT 10SM FEW100 20/12 A2987 RMK AO2 SLP106 T02000117
                 51012 =
2018-06-21 09:53 METAR KMPO 211353Z AUTO 33008KT 10SM OVC075 18/13 A2986 RMK AO2 SLP106 T01780128
                 =
2018-06-21 08:53 METAR KMPO 211253Z AUTO 35009KT 10SM OVC060 17/13 A2985 RMK AO2 SLP100 T01720128
                 =
2018-06-21 07:53 METAR KMPO 211153Z AUTO 34009KT 10SM OVC047 16/14 A2983 RMK AO2 SLP094 60008
                 70017 T01610139 10161 20150 53008 =
2018-06-21 06:53 METAR KMPO 211053Z AUTO 35008KT 10SM OVC042 15/13 A2982 RMK AO2 SLP091 T01500128
                 =
2018-06-21 05:53 METAR KMPO 210953Z AUTO 35009KT 10SM OVC041 15/12 A2980 RMK AO2 SLP085 T01500117
                 =
2018-06-21 04:53 METAR KMPO 210853Z AUTO 36005KT 10SM OVC037 15/13 A2980 RMK AO2 SLP083 60008
                 T01500133 55008 =
2018-06-21 03:53 METAR KMPO 210753Z AUTO 33003KT 10SM OVC035 16/14 A2980 RMK AO2 RAE38 SLP080
                 P0000 T01560144 =
2018-06-21 02:53 METAR KMPO 210653Z AUTO 32004KT 10SM -RA BKN037 OVC047 16/16 A2981 RMK AO2 RAB04
                 SLP085 P0008 T01610161 =
2018-06-21 02:17 METAR KMPO 210617Z AUTO 00000KT 6SM -RA BR FEW006 BKN033 OVC060 16/16 A2982 RMK
                 AO2 RAB04 P0003 T01610161 =
2018-06-21 01:53 METAR KMPO 210553Z AUTO 00000KT 10SM OVC031 16/16 A2983 RMK AO2 SLP090 60009
                 T01610161 10189 20161 58007 =
2018-06-21 01:04 METAR KMPO 210504Z AUTO 00000KT 10SM FEW003 OVC030 16/16 A2984 RMK AO2 T01610161
                 =
2018-06-21 00:53 METAR KMPO 210453Z AUTO 00000KT 10SM SCT027 OVC032 16/16 A2984 RMK AO2 RAE45
                 SLP093 P0003 T01610161 402500128 =
2018-06-21 00:00 METAR KMPO 210400Z AUTO 00000KT 8SM -RA OVC029 16/16 A2985 RMK AO2 P0001
                 T01610156 =
2018-06-20 23:53 METAR KMPO 210353Z AUTO 00000KT 10SM -RA OVC030 16/16 A2985 RMK AO2 RAB0258
                 SLP099 P0001 T01610161 =
2018-06-20 22:53 METAR KMPO 210253Z AUTO 01004KT 10SM OVC030 16/16 A2985 RMK AO2 RAB09E50 SLP101
                 P0002 60005 T01610161 50000 =
2018-06-20 21:53 METAR KMPO 210153Z AUTO 02005KT 10SM FEW018 BKN035 OVC042 17/16 A2985 RMK AO2
                 RAE0057B16E50 SLP103 P0003 T01670156 =
2018-06-20 20:53 METAR KMPO 210053Z AUTO 36007KT 10SM -RA OVC041 18/16 A2985 RMK AO2 RAB14 SLP101
                 P0000 T01780156 =
2018-06-20 19:53 METAR KMPO 202353Z AUTO 32003KT 10SM OVC040 19/17 A2985 RMK AO2 RAE00 SLP100
                 P0000 60000 T01890172 10250 20189 58003 =
2018-06-20 18:53 METAR KMPO 202253Z AUTO 22004KT 10SM -RA OVC035 19/18 A2985 RMK AO2 SLP101 P0000
                 T01940178 =
2018-06-20 17:53 METAR KMPO 202153Z AUTO 00000KT 10SM -RA BKN047 OVC060 20/17 A2986 RMK AO2 RAB00
                 SLP104 P0000 T02000172 =
2018-06-20 16:53 METAR KMPO 202053Z AUTO 02005KT 10SM BKN047 OVC070 22/16 A2986 RMK AO2 SLP103
                 T02220156 58011 =
2018-06-20 15:53 METAR KMPO 201953Z AUTO VRB05KT 10SM OVC080 24/13 A2987 RMK AO2 SLP106 T02390133
                 =
2018-06-20 14:53 METAR KMPO 201853Z AUTO 29007KT 10SM FEW050 OVC080 24/13 A2989 RMK AO2 SLP109
                 T02390133 =
2018-06-20 13:53 METAR KMPO 201753Z AUTO 29004KT 10SM OVC090 23/12 A2989 RMK AO2 SLP112 T02330122
                 10244 20167 58014 =
2018-06-20 12:53 METAR KMPO 201653Z AUTO 22006KT 10SM SCT080 23/12 A2991 RMK AO2 SLP117 T02330122
                 =

Support USWX by starting your Amazon purchase here.